Time;durP1;ratioP1;P1;durP2;ratioP2;P2;SDS_P1;SDS_P2;PMS_P1;PMS_P2;Temp;Humidity;BMP_temperature;BMP_pressure;BME280_temperature;BME280_humidity;BME280_pressure;Samples;Min_cycle;Max_cycle;Signal;HPM_P1;HPM_P2
2021/12/20 00:00:26;;;;;;;14.38;6.17;;;;;;;2.83;86.57;98301.58;1676681;85;21067;-78
2021/12/20 00:03:00;;;;;;;11.97;6.00;;;;;;;2.84;86.42;98293.00;1669400;85;21087;-76
2021/12/20 00:05:28;;;;;;;11.33;5.78;;;;;;;2.86;86.31;98291.72;1677468;85;21047;-76
2021/12/20 00:07:55;;;;;;;13.48;6.00;;;;;;;2.86;86.56;98283.58;1667437;85;21075;-76
2021/12/20 00:10:23;;;;;;;11.65;5.42;;;;;;;2.89;86.24;98289.14;1674874;85;21078;-76
2021/12/20 00:12:51;;;;;;;13.55;6.62;;;;;;;2.83;87.07;98283.61;1680878;83;21067;-78
2021/12/20 00:15:19;;;;;;;13.22;5.75;;;;;;;2.88;86.80;98276.71;1671376;85;21059;-78
2021/12/20 00:17:47;;;;;;;14.83;6.50;;;;;;;2.84;87.10;98280.61;1681711;85;21039;-78
2021/12/20 00:20:14;;;;;;;13.85;5.97;;;;;;;2.92;86.48;98268.13;1671705;85;20976;-77
2021/12/20 00:22:41;;;;;;;13.32;5.78;;;;;;;2.91;86.48;98256.60;1677684;85;21269;-79
2021/12/20 00:25:10;;;;;;;16.65;6.33;;;;;;;2.88;87.06;98254.89;1668739;85;21055;-80
2021/12/20 00:27:38;;;;;;;15.08;6.72;;;;;;;2.92;86.72;98252.72;1677093;85;21079;-78
2021/12/20 00:30:09;;;;;;;12.33;5.92;;;;;;;2.87;87.29;98254.48;1665966;85;21607;-76
2021/12/20 00:32:38;;;;;;;15.90;6.67;;;;;;;2.88;87.00;98253.61;1680654;85;21067;-78
2021/12/20 00:35:07;;;;;;;14.53;6.58;;;;;;;2.86;87.66;98241.66;1674385;85;21070;-77
2021/12/20 00:40:21;;;;;;;13.85;5.92;;;;;;;2.86;87.81;98240.37;1672566;85;21539;-76
2021/12/20 00:42:52;;;;;;;17.23;6.92;;;;;;;2.86;87.82;98248.07;1678646;85;21578;-77
2021/12/20 00:45:22;;;;;;;17.98;7.67;;;;;;;2.86;88.14;98241.66;1673985;85;21539;-76
2021/12/20 00:47:50;;;;;;;14.83;6.95;;;;;;;2.83;88.24;98225.85;1673677;85;21182;-76
2021/12/20 00:50:20;;;;;;;12.85;5.67;;;;;;;2.90;87.24;98223.64;1675567;85;21063;-78
2021/12/20 00:52:49;;;;;;;18.77;7.53;;;;;;;2.88;87.54;98215.09;1669012;85;21059;-76
2021/12/20 00:55:18;;;;;;;16.25;6.70;;;;;;;2.87;88.05;98217.70;1674473;85;21035;-76
2021/12/20 00:57:48;;;;;;;17.32;7.50;;;;;;;2.86;87.58;98228.38;1669339;85;21091;-76
2021/12/20 01:00:20;;;;;;;17.12;6.80;;;;;;;2.81;88.50;98233.16;1672865;85;21103;-77
2021/12/20 01:02:48;;;;;;;13.65;6.45;;;;;;;2.83;88.12;98210.45;1671900;85;21086;-76
2021/12/20 01:05:16;;;;;;;17.45;6.87;;;;;;;2.84;87.92;98203.16;1673573;85;21034;-78
2021/12/20 01:07:44;;;;;;;16.60;6.45;;;;;;;2.83;88.41;98208.33;1669660;85;21044;-78
2021/12/20 01:10:13;;;;;;;15.95;7.55;;;;;;;2.85;88.22;98210.00;1677063;85;21602;-78
2021/12/20 01:12:49;;;;;;;16.93;6.83;;;;;;;2.84;88.41;98204.44;1664386;85;21075;-76
2021/12/20 01:15:18;;;;;;;14.28;6.65;;;;;;;2.86;88.08;98209.13;1668182;85;22213;-76
2021/12/20 01:17:47;;;;;;;18.00;7.22;;;;;;;2.86;88.05;98196.29;1658927;85;21063;-76
2021/12/20 01:20:15;;;;;;;14.93;6.65;;;;;;;2.82;88.78;98201.03;1663133;85;21555;-76
2021/12/20 01:22:45;;;;;;;17.95;7.33;;;;;;;2.84;88.40;98203.16;1657277;85;21043;-78
2021/12/20 01:25:14;;;;;;;15.18;6.20;;;;;;;2.85;88.74;98210.45;1668500;85;21591;-76
2021/12/20 01:28:03;;;;;;;15.30;6.55;;;;;;;2.80;88.71;98209.18;1667168;85;21054;-76
2021/12/20 01:30:31;;;;;;;17.32;6.45;;;;;;;2.85;88.48;98204.87;1659211;86;21050;-76
2021/12/20 01:32:59;;;;;;;20.10;7.22;;;;;;;2.86;88.17;98198.86;1647407;86;21079;-78
2021/12/20 01:35:28;;;;;;;19.05;6.50;;;;;;;2.84;88.28;98204.44;1630172;87;21568;-77
2021/12/20 01:37:56;;;;;;;19.35;6.75;;;;;;;2.87;88.32;98201.02;1637494;86;21003;-78
2021/12/20 01:40:24;;;;;;;15.93;5.80;;;;;;;2.89;88.39;98208.27;1651270;86;21121;-78
2021/12/20 01:42:56;;;;;;;18.05;7.00;;;;;;;2.87;88.05;98203.14;1657711;86;21023;-76
2021/12/20 01:45:27;;;;;;;15.18;6.33;;;;;;;2.84;88.73;98200.58;1648766;86;21061;-76
2021/12/20 01:48:11;;;;;;;17.57;6.55;;;;;;;2.90;88.00;98204.82;1655367;86;21043;-75
2021/12/20 01:53:11;;;;;;;16.35;7.45;;;;;;;2.90;88.27;98202.25;1583989;90;21118;-76
2021/12/20 01:55:39;;;;;;;18.57;7.45;;;;;;;2.90;88.31;98196.67;1627473;87;21051;-76
2021/12/20 01:58:06;;;;;;;17.40;7.78;;;;;;;2.90;88.24;98191.55;1662060;86;21090;-77
2021/12/20 02:00:37;;;;;;;21.80;7.95;;;;;;;2.87;88.92;98179.19;1655918;86;21066;-79
2021/12/20 02:03:04;;;;;;;16.62;7.70;;;;;;;2.83;89.23;98169.38;1651328;86;22244;-77
2021/12/20 02:08:18;;;;;;;15.53;7.07;;;;;;;2.85;88.40;98170.22;1647837;86;20983;-75
2021/12/20 02:10:45;;;;;;;16.37;7.20;;;;;;;2.87;88.25;98177.91;1625752;87;21391;-77
2021/12/20 02:13:14;;;;;;;15.98;6.75;;;;;;;2.84;88.68;98181.77;1666106;85;21023;-76
2021/12/20 02:15:43;;;;;;;19.07;6.83;;;;;;;2.82;88.81;98183.50;1622222;87;20987;-76
2021/12/20 02:18:11;;;;;;;15.60;6.83;;;;;;;2.83;88.83;98182.66;1665105;85;21014;-78
2021/12/20 02:20:39;;;;;;;20.12;7.08;;;;;;;2.84;88.42;98181.33;1620759;87;21017;-78
2021/12/20 02:23:08;;;;;;;19.75;7.42;;;;;;;2.83;88.60;98181.37;1668938;85;21053;-78
2021/12/20 02:25:36;;;;;;;18.57;7.65;;;;;;;2.84;88.57;98181.33;1619591;87;21073;-77
2021/12/20 02:28:08;;;;;;;17.90;7.33;;;;;;;2.86;88.22;98187.30;1651209;86;21545;-78
2021/12/20 02:30:46;;;;;;;16.90;6.22;;;;;;;2.85;88.12;98179.64;1648032;85;21062;-80
2021/12/20 02:38:40;;;;;;;16.87;6.37;;;;;;;2.88;88.25;98183.00;1682937;85;21094;-78
2021/12/20 02:41:13;;;;;;;16.57;6.85;;;;;;;2.89;88.10;98180.03;1650627;86;21633;-79
2021/12/20 02:43:52;;;;;;;12.33;6.62;;;;;;;2.89;88.04;98188.58;1637212;87;21015;-77
2021/12/20 02:46:47;;;;;;;;;;;;;;;2.89;87.98;98205.70;1689946;84;21026;-78
2021/12/20 02:49:01;;;;;;;12.20;5.72;;;;;;;2.90;88.03;98204.38;1683140;85;20451;-78
2021/12/20 02:51:28;;;;;;;14.83;5.95;;;;;;;2.96;87.45;98209.90;1679388;85;21038;-77
2021/12/20 02:53:59;;;;;;;10.35;4.87;;;;;;;2.93;87.77;98211.23;1686937;85;21078;-77
2021/12/20 02:56:26;;;;;;;11.03;5.03;;;;;;;2.95;87.72;98216.76;1650662;87;21505;-77
2021/12/20 02:58:54;;;;;;;13.08;5.80;;;;;;;2.99;87.47;98227.86;1643408;87;21578;-77
2021/12/20 03:01:23;;;;;;;16.10;5.92;;;;;;;3.03;87.40;98236.39;1685054;85;21033;-75
2021/12/20 03:03:53;;;;;;;10.85;5.42;;;;;;;3.05;87.49;98226.52;1642674;87;21065;-78
2021/12/20 03:06:30;;;;;;;15.45;5.80;;;;;;;3.05;87.47;98240.64;1685436;85;21525;-76
2021/12/20 03:08:58;;;;;;;10.88;5.37;;;;;;;3.05;87.57;98246.22;1676529;85;21350;-78
2021/12/20 03:11:27;;;;;;;14.03;6.22;;;;;;;3.09;87.37;98246.17;1659806;85;21158;-79
2021/12/20 03:14:08;;;;;;;12.68;5.90;;;;;;;3.10;87.35;98247.02;1665314;85;20992;-77
2021/12/20 03:16:27;;;;;;;15.50;6.33;;;;;;;3.13;87.31;98247.00;1682920;84;21035;-79
2021/12/20 03:18:54;;;;;;;12.18;5.70;;;;;;;3.16;87.13;98241.83;1678483;85;21114;-78
2021/12/20 03:21:21;;;;;;;16.73;5.80;;;;;;;3.16;86.96;98235.40;1678751;84;21086;-78
2021/12/20 03:23:49;;;;;;;15.98;5.47;;;;;;;3.16;86.78;98236.69;1677838;85;21546;-77
2021/12/20 03:26:16;;;;;;;16.07;6.00;;;;;;;3.15;86.87;98246.55;1680022;85;21623;-78
2021/12/20 03:28:43;;;;;;;11.93;5.53;;;;;;;3.15;86.77;98251.25;1679669;84;21514;-77
2021/12/20 03:31:12;;;;;;;12.40;6.08;;;;;;;3.17;86.66;98262.36;1697446;84;21538;-77
2021/12/20 03:33:40;;;;;;;10.90;5.92;;;;;;;3.21;86.49;98263.20;1679014;84;21082;-77
2021/12/20 03:36:07;;;;;;;11.22;5.72;;;;;;;3.18;86.57;98273.07;1696775;84;21086;-77
2021/12/20 03:38:35;;;;;;;10.58;5.47;;;;;;;3.18;86.54;98274.77;1652178;85;21071;-77
2021/12/20 03:41:03;;;;;;;12.60;5.75;;;;;;;3.20;86.43;98278.17;1685836;84;21078;-78
2021/12/20 03:43:31;;;;;;;12.10;5.58;;;;;;;3.21;86.31;98280.33;1682330;84;21035;-78
2021/12/20 03:46:00;;;;;;;15.32;6.40;;;;;;;3.17;86.46;98287.20;1697996;84;21566;-79
2021/12/20 03:48:28;;;;;;;12.37;6.15;;;;;;;3.22;86.39;98291.01;1702044;84;21050;-80
2021/12/20 03:51:00;;;;;;;12.82;6.37;;;;;;;3.22;86.49;98286.72;1701599;84;21030;-78
2021/12/20 03:53:29;;;;;;;12.47;5.58;;;;;;;3.24;86.34;98288.84;1691184;84;21058;-79
2021/12/20 03:55:57;;;;;;;11.75;5.78;;;;;;;3.23;86.40;98296.14;1674495;85;21078;-78
2021/12/20 03:58:27;;;;;;;11.30;5.22;;;;;;;3.24;86.28;98299.55;1694101;84;21031;-79
2021/12/20 04:00:56;;;;;;;12.10;5.42;;;;;;;3.23;86.13;98301.72;1656389;85;21045;-78
2021/12/20 04:03:25;;;;;;;14.60;5.33;;;;;;;3.25;86.04;98294.85;1693511;84;21069;-75
2021/12/20 04:05:54;;;;;;;12.33;5.67;;;;;;;3.25;86.12;98296.98;1656400;85;21026;-77
2021/12/20 04:08:21;;;;;;;11.85;5.03;;;;;;;3.29;86.19;98303.80;1667694;84;21018;-78
2021/12/20 04:10:49;;;;;;;9.73;4.60;;;;;;;3.28;85.98;98304.67;1658957;85;21007;-77
2021/12/20 04:13:16;;;;;;;9.23;5.10;;;;;;;3.30;86.07;98305.92;1660255;86;21114;-77
2021/12/20 04:15:43;;;;;;;12.07;5.70;;;;;;;3.36;86.27;98305.45;1631381;87;21067;-78
2021/12/20 04:18:11;;;;;;;15.18;5.97;;;;;;;3.44;86.28;98305.80;1649406;86;21054;-78
2021/12/20 04:20:39;;;;;;;10.25;5.12;;;;;;;3.48;86.29;98304.50;1654878;86;21058;-78
2021/12/20 04:23:06;;;;;;;13.83;5.65;;;;;;;3.58;86.31;98306.11;1646997;86;21050;-77
2021/12/20 04:25:33;;;;;;;11.57;5.12;;;;;;;3.66;86.40;98303.47;1653176;86;21073;-77
2021/12/20 04:28:01;;;;;;;11.78;6.30;;;;;;;3.79;86.49;98305.02;1650784;86;21039;-79
2021/12/20 04:30:31;;;;;;;12.85;5.72;;;;;;;3.85;86.19;98304.11;1646576;85;21035;-77
2021/12/20 04:32:59;;;;;;;13.43;5.25;;;;;;;3.84;85.58;98304.12;1647943;86;21035;-79
2021/12/20 04:35:27;;;;;;;15.93;5.92;;;;;;;3.83;85.61;98290.42;1657639;86;21090;-79
2021/12/20 04:37:57;;;;;;;14.40;6.22;;;;;;;3.85;85.54;98302.83;1645658;86;21066;-78
2021/12/20 04:40:24;;;;;;;12.07;5.55;;;;;;;3.84;85.45;98318.27;1653747;86;21058;-77
2021/12/20 04:42:55;;;;;;;11.55;5.78;;;;;;;3.82;85.26;98325.14;1643914;86;21547;-78
2021/12/20 04:45:25;;;;;;;13.62;6.70;;;;;;;3.77;85.39;98319.61;1662829;86;21074;-77
2021/12/20 04:47:53;;;;;;;13.38;5.72;;;;;;;3.77;85.42;98314.91;1646235;86;21056;-78
2021/12/20 04:50:21;;;;;;;16.93;8.65;;;;;;;3.77;85.54;98306.76;1663315;86;21054;-79
2021/12/20 04:52:50;;;;;;;16.87;6.15;;;;;;;3.78;85.89;98315.34;1642814;86;21044;-79
2021/12/20 04:55:17;;;;;;;15.63;7.28;;;;;;;3.81;85.58;98328.59;1658623;86;21537;-79
2021/12/20 04:57:45;;;;;;;13.58;6.03;;;;;;;3.77;85.38;98335.48;1644006;86;21009;-79
2021/12/20 05:00:18;;;;;;;13.18;6.80;;;;;;;3.72;85.40;98340.67;1626127;87;21103;-77
2021/12/20 05:02:47;;;;;;;14.35;6.28;;;;;;;3.73;85.68;98350.08;1644089;86;21599;-76
2021/12/20 05:05:14;;;;;;;16.85;6.95;;;;;;;3.75;85.76;98358.62;1652487;86;21042;-77
2021/12/20 05:07:44;;;;;;;57.70;21.12;;;;;;;3.76;85.86;98360.76;1664672;86;21057;-77
2021/12/20 05:10:15;;;;;;;15.68;7.17;;;;;;;3.81;85.81;98362.02;1653208;86;21034;-75
2021/12/20 05:12:42;;;;;;;17.17;7.35;;;;;;;3.80;85.47;98363.75;1645172;86;21098;-75
2021/12/20 05:15:09;;;;;;;17.05;7.92;;;;;;;3.75;85.80;98365.50;1648722;86;21038;-77
2021/12/20 05:17:37;;;;;;;13.95;7.55;;;;;;;3.77;85.96;98362.03;1668939;86;21058;-74
2021/12/20 05:20:05;;;;;;;13.45;5.40;;;;;;;3.80;85.91;98363.75;1648954;86;21053;-75
2021/12/20 05:22:32;;;;;;;13.22;5.03;;;;;;;3.83;85.84;98362.86;1660626;86;21066;-77
2021/12/20 05:25:00;;;;;;;10.75;4.75;;;;;;;3.84;85.53;98365.42;1647201;86;21022;-76
2021/12/20 05:27:27;;;;;;;12.90;5.65;;;;;;;3.83;85.28;98371.86;1657052;86;21081;-77
2021/12/20 05:29:54;;;;;;;16.57;6.80;;;;;;;3.81;85.07;98369.73;1652892;85;21089;-77
2021/12/20 05:32:22;;;;;;;12.20;6.75;;;;;;;3.77;84.99;98369.75;1659287;84;21046;-77
2021/12/20 05:34:50;;;;;;;15.70;6.58;;;;;;;3.78;85.09;98370.63;1702250;84;21034;-77
2021/12/20 05:37:17;;;;;;;8.23;4.75;;;;;;;3.75;85.03;98368.06;1698081;84;21077;-77
2021/12/20 05:39:45;;;;;;;31.25;13.28;;;;;;;3.73;84.96;98362.94;1702068;84;21033;-77
2021/12/20 05:42:13;;;;;;;24.10;10.32;;;;;;;3.69;84.95;98361.70;1674666;85;21049;-77
2021/12/20 05:44:40;;;;;;;45.55;23.55;;;;;;;3.67;84.94;98371.99;1702420;84;21007;-79
2021/12/20 05:47:08;;;;;;;27.62;14.18;;;;;;;3.63;84.96;98378.47;1693677;84;21605;-79
2021/12/20 05:49:35;;;;;;;14.10;7.08;;;;;;;3.59;84.95;98384.06;1693273;84;22230;-79
2021/12/20 05:52:03;;;;;;;10.80;5.62;;;;;;;3.60;85.00;98372.90;1686209;84;21519;-79
2021/12/20 05:54:31;;;;;;;17.15;8.40;;;;;;;3.58;84.94;98383.63;1657750;85;21100;-79
2021/12/20 05:56:59;;;;;;;16.90;7.55;;;;;;;3.42;84.35;98394.90;1659171;84;21006;-80
2021/12/20 05:59:26;;;;;;;31.77;13.48;;;;;;;3.31;84.62;98413.82;1658048;86;21083;-79
2021/12/20 06:01:54;;;;;;;16.27;8.40;;;;;;;3.28;85.33;98414.27;1656078;84;21193;-79
2021/12/20 06:04:21;;;;;;;16.35;8.08;;;;;;;3.27;85.21;98419.84;1650351;86;21102;-79
2021/12/20 06:06:49;;;;;;;17.12;8.30;;;;;;;3.25;85.43;98427.99;1645682;85;21594;-79
2021/12/20 06:09:16;;;;;;;11.38;6.37;;;;;;;3.27;85.53;98428.84;1655915;86;21062;-79
2021/12/20 06:11:44;;;;;;;24.20;9.50;;;;;;;3.25;85.48;98435.70;1643717;86;21102;-79
2021/12/20 06:14:11;;;;;;;12.05;5.97;;;;;;;3.22;85.19;98442.12;1683266;84;21227;-79
2021/12/20 06:16:38;;;;;;;17.85;9.75;;;;;;;3.22;85.41;98453.69;1664379;86;21622;-80
2021/12/20 06:19:07;;;;;;;16.10;9.23;;;;;;;3.21;85.28;98455.85;1684073;84;21158;-79
2021/12/20 06:21:35;;;;;;;14.40;6.85;;;;;;;3.15;85.14;98468.73;1701536;84;21553;-79
2021/12/20 06:24:03;;;;;;;17.52;8.00;;;;;;;3.12;85.81;98473.88;1693334;84;21557;-79
2021/12/20 06:26:30;;;;;;;17.00;7.67;;;;;;;3.11;85.72;98483.73;1664262;85;21047;-79
2021/12/20 06:28:58;;;;;;;15.55;7.37;;;;;;;3.10;85.58;98491.00;1675991;84;21042;-79
2021/12/20 06:31:25;;;;;;;19.35;9.08;;;;;;;3.09;85.46;98487.59;1662812;85;21102;-80
2021/12/20 06:33:53;;;;;;;12.13;6.20;;;;;;;3.13;85.60;98493.13;1649363;86;21027;-79
2021/12/20 06:36:21;;;;;;;12.75;6.87;;;;;;;3.13;85.11;98498.27;1659286;86;21544;-79
2021/12/20 06:38:49;;;;;;;16.02;6.95;;;;;;;3.06;85.02;98505.56;1650293;86;21531;-78
2021/12/20 06:41:18;;;;;;;13.40;6.58;;;;;;;3.01;84.75;98507.76;1655579;86;21086;-79
2021/12/20 06:43:46;;;;;;;15.00;5.75;;;;;;;2.99;85.06;98505.19;1651402;86;21064;-77
2021/12/20 06:46:15;;;;;;;13.18;5.60;;;;;;;2.97;84.90;98507.75;1657630;86;21099;-78
2021/12/20 06:48:43;;;;;;;12.63;5.90;;;;;;;2.97;85.08;98507.75;1653508;86;21381;-77
2021/12/20 06:51:11;;;;;;;14.73;5.72;;;;;;;2.97;85.35;98514.17;1652485;86;21076;-78
2021/12/20 06:53:38;;;;;;;14.98;6.87;;;;;;;2.99;85.44;98517.59;1649059;86;21072;-78
2021/12/20 06:56:06;;;;;;;28.02;9.30;;;;;;;2.99;85.28;98518.88;1650786;86;21056;-78
2021/12/20 06:58:33;;;;;;;18.98;7.28;;;;;;;3.00;85.27;98526.14;1652676;86;21036;-78
2021/12/20 07:01:01;;;;;;;18.02;6.97;;;;;;;2.99;85.21;98530.43;1651858;86;21007;-78
2021/12/20 07:03:28;;;;;;;25.70;8.28;;;;;;;2.98;85.21;98533.88;1654798;86;21111;-78
2021/12/20 07:05:56;;;;;;;18.57;8.83;;;;;;;2.92;85.05;98532.58;1653961;86;21117;-77
2021/12/20 07:08:23;;;;;;;28.90;11.03;;;;;;;2.87;85.03;98536.05;1660130;86;21088;-77
2021/12/20 07:10:51;;;;;;;36.42;15.15;;;;;;;2.81;85.19;98536.92;1661575;86;21054;-79
2021/12/20 07:13:19;;;;;;;41.45;15.70;;;;;;;2.78;85.45;98537.76;1660509;86;21044;-78
2021/12/20 07:15:46;;;;;;;33.60;13.62;;;;;;;2.78;85.69;98533.06;1656354;86;21034;-78
2021/12/20 07:18:14;;;;;;;27.42;11.75;;;;;;;2.75;85.47;98536.94;1655713;86;21561;-79
2021/12/20 07:20:41;;;;;;;27.05;11.73;;;;;;;2.76;85.78;98542.05;1659774;86;21066;-79
2021/12/20 07:23:09;;;;;;;29.67;10.72;;;;;;;2.76;85.29;98559.17;1665474;85;21157;-79
2021/12/20 07:25:36;;;;;;;18.57;8.88;;;;;;;2.76;85.50;98555.31;1664358;85;21025;-79
2021/12/20 07:28:04;;;;;;;32.78;12.60;;;;;;;2.74;85.69;98554.47;1669831;85;21042;-79
2021/12/20 07:30:32;;;;;;;24.37;10.72;;;;;;;2.73;85.91;98554.06;1665609;83;21117;-79
2021/12/20 07:32:59;;;;;;;23.73;11.20;;;;;;;2.72;86.14;98551.89;1660065;85;21046;-79
2021/12/20 07:35:27;;;;;;;29.52;10.95;;;;;;;2.74;86.17;98554.47;1649150;85;21057;-80
2021/12/20 07:37:57;;;;;;;25.90;10.63;;;;;;;2.76;86.19;98557.45;1653779;85;21063;-79
2021/12/20 07:40:24;;;;;;;31.52;12.45;;;;;;;2.81;86.01;98562.59;1665357;85;21082;-80
2021/12/20 07:42:52;;;;;;;13.40;6.05;;;;;;;2.89;85.47;98569.00;1667007;85;21372;-79
2021/12/20 07:45:20;;;;;;;13.90;4.92;;;;;;;2.92;81.83;98577.95;1635238;87;21111;-78
2021/12/20 07:47:49;;;;;;;5.33;3.08;;;;;;;2.98;80.51;98573.67;1612911;88;21114;-78
2021/12/20 07:50:19;;;;;;;11.63;5.33;;;;;;;3.05;78.19;98581.36;1662127;86;21034;-78
2021/12/20 07:52:47;;;;;;;11.88;4.85;;;;;;;3.08;78.19;98580.89;1665962;85;21571;-78
2021/12/20 07:55:16;;;;;;;5.80;2.65;;;;;;;3.15;78.92;98588.17;1657364;85;21050;-77
2021/12/20 07:57:44;;;;;;;7.03;3.00;;;;;;;3.21;74.40;98588.14;1625591;87;21463;-78
2021/12/20 08:00:13;;;;;;;12.98;5.50;;;;;;;3.27;71.22;98600.97;1664636;85;21051;-79
2021/12/20 08:02:40;;;;;;;10.85;4.20;;;;;;;3.35;71.66;98603.07;1653652;85;21077;-79
2021/12/20 08:05:10;;;;;;;7.78;2.87;;;;;;;3.42;72.09;98602.61;1665020;85;21047;-79
2021/12/20 08:07:38;;;;;;;7.08;3.25;;;;;;;3.48;68.22;98606.87;1663552;85;21050;-78
2021/12/20 08:10:07;;;;;;;8.75;3.25;;;;;;;3.55;71.05;98609.84;1663750;85;21046;-79
2021/12/20 08:12:35;;;;;;;11.20;4.33;;;;;;;3.60;72.24;98615.80;1622669;87;21039;-79
2021/12/20 08:15:04;;;;;;;4.83;2.10;;;;;;;3.66;65.95;98622.23;1671778;85;21042;-79
2021/12/20 08:17:32;;;;;;;8.38;2.02;;;;;;;3.69;66.31;98628.63;1663298;85;21054;-79
2021/12/20 08:19:59;;;;;;;5.53;2.35;;;;;;;3.75;66.76;98630.31;1664214;85;21025;-79
2021/12/20 08:22:27;;;;;;;5.90;1.87;;;;;;;3.78;62.66;98635.02;1662889;85;21328;-80
2021/12/20 08:24:55;;;;;;;7.20;2.05;;;;;;;3.87;67.11;98633.25;1661924;85;21035;-79
2021/12/20 08:27:22;;;;;;;10.50;2.77;;;;;;;3.93;61.15;98648.65;1658228;85;21014;-79
2021/12/20 08:29:50;;;;;;;2.12;1.30;;;;;;;3.96;60.76;98648.65;1662986;85;21014;-79
2021/12/20 08:32:18;;;;;;;3.60;1.52;;;;;;;4.03;62.46;98645.16;1659852;85;21020;-79
2021/12/20 08:34:45;;;;;;;4.80;1.82;;;;;;;4.10;61.43;98646.84;1658215;85;21579;-79
2021/12/20 08:37:13;;;;;;;6.03;2.17;;;;;;;4.18;65.37;98647.64;1628064;87;21073;-78
2021/12/20 08:39:41;;;;;;;5.05;1.90;;;;;;;4.27;61.82;98657.00;1630719;87;21114;-79
2021/12/20 08:42:08;;;;;;;3.35;1.50;;;;;;;4.32;63.82;98659.13;1662418;85;21082;-79
2021/12/20 08:44:36;;;;;;;6.22;2.20;;;;;;;4.34;60.75;98659.97;1650655;85;21098;-79
2021/12/20 08:47:04;;;;;;;9.65;2.65;;;;;;;4.43;62.67;98668.05;1672146;85;21083;-78
2021/12/20 08:49:32;;;;;;;4.90;1.75;;;;;;;4.45;58.83;98673.19;1659249;85;21038;-79
2021/12/20 08:52:00;;;;;;;4.17;1.77;;;;;;;4.42;56.22;98674.08;1661146;85;21102;-79
2021/12/20 08:54:29;;;;;;;2.33;0.95;;;;;;;4.39;55.06;98676.66;1629077;87;21093;-79
2021/12/20 08:56:57;;;;;;;5.12;2.05;;;;;;;4.31;50.21;98677.99;1615966;87;21090;-80
2021/12/20 08:59:26;;;;;;;3.45;1.67;;;;;;;4.26;52.44;98673.73;1617163;87;21099;-77
2021/12/20 09:01:55;;;;;;;3.45;1.60;;;;;;;4.27;53.97;98676.30;1660667;85;21057;-77
2021/12/20 09:04:23;;;;;;;3.52;1.30;;;;;;;4.22;51.87;98681.94;1632663;87;21117;-79
2021/12/20 09:06:51;;;;;;;3.33;1.60;;;;;;;4.11;48.13;98690.98;1624552;87;21574;-80
2021/12/20 09:09:19;;;;;;;2.72;1.12;;;;;;;4.07;49.94;98681.58;1630679;87;21034;-79
2021/12/20 09:11:47;;;;;;;3.30;1.55;;;;;;;4.02;50.01;98688.89;1624121;87;21098;-79
2021/12/20 09:14:15;;;;;;;2.52;1.15;;;;;;;4.06;53.11;98691.86;1609412;86;21054;-78
2021/12/20 09:16:43;;;;;;;4.60;1.22;;;;;;;3.99;47.92;98683.34;1649259;85;21063;-79
2021/12/20 09:19:11;;;;;;;1.82;1.10;;;;;;;4.00;51.48;98682.48;1635319;87;22413;-79
2021/12/20 09:21:38;;;;;;;2.42;1.40;;;;;;;4.03;49.72;98691.46;1652466;85;21039;-79
2021/12/20 09:24:09;;;;;;;6.60;2.27;;;;;;;3.95;47.73;98695.79;1656103;85;21099;-80
2021/12/20 09:26:35;;;;;;;5.40;1.75;;;;;;;3.86;47.82;98694.12;1659784;85;21063;-80
2021/12/20 09:29:03;;;;;;;5.15;1.67;;;;;;;3.83;46.95;98696.70;1657898;85;21051;-79
2021/12/20 09:31:30;;;;;;;8.00;2.92;;;;;;;3.81;48.81;98700.15;1654534;85;21059;-79
2021/12/20 09:33:58;;;;;;;3.42;1.30;;;;;;;3.79;48.43;98693.28;1656276;85;21046;-78
2021/12/20 09:36:30;;;;;;;3.60;1.37;;;;;;;3.68;47.03;98702.77;1626212;87;21097;-80
2021/12/20 09:38:58;;;;;;;10.85;1.60;;;;;;;3.68;48.51;98705.34;1625538;87;21069;-78
2021/12/20 09:44:10;;;;;;;2.12;1.20;;;;;;;3.73;48.62;98711.75;1629592;87;21079;-85
2021/12/20 09:46:39;;;;;;;6.28;1.20;;;;;;;3.83;48.37;98704.85;1662832;84;21031;-82
2021/12/20 09:49:09;;;;;;;3.30;1.10;;;;;;;3.88;48.09;98694.09;1665183;86;21026;-85
2021/12/20 09:51:37;;;;;;;2.20;1.10;;;;;;;3.97;47.48;98700.49;1663448;85;21057;-82
2021/12/20 09:54:05;;;;;;;1.75;1.00;;;;;;;4.07;47.27;98702.59;1660890;85;21074;-83
2021/12/20 09:56:33;;;;;;;3.25;1.02;;;;;;;4.12;45.77;98700.42;1667028;85;21057;-84
2021/12/20 09:59:01;;;;;;;1.75;0.90;;;;;;;4.22;47.55;98697.78;1656811;86;20963;-83
2021/12/20 10:01:29;;;;;;;5.85;3.37;;;;;;;4.25;45.04;98700.34;1677750;85;21079;-82
2021/12/20 10:03:58;;;;;;;4.50;1.72;;;;;;;4.29;44.16;98695.61;1662774;86;21047;-81
2021/12/20 10:06:26;;;;;;;3.52;1.20;;;;;;;4.34;42.62;98708.88;1658271;85;21074;-81
2021/12/20 10:08:56;;;;;;;4.40;1.25;;;;;;;4.35;42.56;98684.83;1656443;86;21899;-83
2021/12/20 10:11:29;;;;;;;0.80;0.80;;;;;;;4.49;45.25;98695.47;1672407;85;21026;-84
2021/12/20 10:14:10;;;;;;;2.47;0.95;;;;;;;4.58;45.26;98702.70;1657032;85;20996;-82
2021/12/20 10:16:39;;;;;;;4.20;1.15;;;;;;;4.58;44.05;98697.55;1662727;85;21051;-84
2021/12/20 10:19:30;;;;;;;6.33;1.50;;;;;;;4.54;43.97;98695.87;1661914;85;21090;-83
2021/12/20 10:22:01;;;;;;;5.55;1.70;;;;;;;4.48;42.80;98689.92;1653271;85;21035;-84
2021/12/20 10:24:35;;;;;;;12.25;2.42;;;;;;;4.37;45.05;98683.09;1665342;85;21058;-83
2021/12/20 10:27:04;;;;;;;12.40;3.62;;;;;;;4.29;44.05;98690.45;1668125;85;21039;-84
2021/12/20 10:29:36;;;;;;;2.98;1.12;;;;;;;4.28;45.03;98708.06;1658370;86;21059;-84
2021/12/20 10:32:04;;;;;;;19.67;3.85;;;;;;;4.24;45.00;98693.06;1668935;84;21110;-81
2021/12/20 10:34:35;;;;;;;2.83;1.22;;;;;;;4.10;43.04;98692.27;1717959;81;21597;-89
2021/12/20 10:37:05;;;;;;;5.47;1.60;;;;;;;4.17;44.93;98683.66;1736007;82;21060;-81
2021/12/20 10:39:37;;;;;;;14.78;3.70;;;;;;;4.11;43.53;98680.69;1744009;82;20964;-85
2021/12/20 10:42:23;;;;;;;12.70;3.62;;;;;;;4.16;43.95;98687.12;1747797;82;20965;-82
2021/12/20 10:45:17;;;;;;;5.42;1.92;;;;;;;4.16;45.42;98680.25;1737729;82;21048;-81
2021/12/20 10:47:50;;;;;;;3.92;1.57;;;;;;;4.28;45.27;98692.63;1754664;81;20999;-82
2021/12/20 10:50:32;;;;;;;3.22;1.50;;;;;;;4.27;43.95;98680.17;1747347;81;21546;-81
2021/12/20 10:53:23;;;;;;;19.02;5.05;;;;;;;4.17;42.30;98679.80;1750859;82;21067;-81
2021/12/20 10:56:03;;;;;;;2.83;1.62;;;;;;;4.19;44.68;98681.50;1701735;83;21245;-81
2021/12/20 10:58:34;;;;;;;10.18;2.87;;;;;;;4.17;43.48;98684.52;1706068;83;21042;-81
2021/12/20 11:01:16;;;;;;;12.10;3.17;;;;;;;4.25;45.56;98682.34;1748101;82;21019;-80
2021/12/20 11:03:56;;;;;;;2.50;1.27;;;;;;;4.25;45.56;98683.19;1748699;82;20984;-82
2021/12/20 11:09:05;;;;;;;3.60;1.55;;;;;;;4.27;44.38;98682.73;1747407;82;21174;-83
2021/12/20 11:11:40;;;;;;;2.65;1.15;;;;;;;4.36;44.06;98681.84;1738389;82;21035;-83
2021/12/20 11:14:10;;;;;;;7.30;1.37;;;;;;;4.46;44.62;98674.92;1745235;82;20984;-84
2021/12/20 11:16:45;;;;;;;7.72;2.35;;;;;;;4.61;42.18;98686.80;1751490;82;21059;-82
2021/12/20 11:19:28;;;;;;;3.22;1.45;;;;;;;4.76;41.20;98679.81;1751886;82;20952;-83
2021/12/20 11:22:09;;;;;;;8.35;2.10;;;;;;;5.02;42.99;98671.00;1753871;80;21567;-82
2021/12/20 11:24:51;;;;;;;11.20;3.05;;;;;;;5.23;45.78;98667.34;1706626;81;21086;-85
2021/12/20 11:27:23;;;;;;;5.25;1.60;;;;;;;5.47;46.51;98675.69;1752866;82;21031;-83
2021/12/20 11:29:55;;;;;;;3.30;1.32;;;;;;;5.69;44.80;98667.26;1744654;82;21007;-83
2021/12/20 11:32:25;;;;;;;13.13;3.05;;;;;;;5.72;39.94;98669.81;1753312;82;21035;-84
2021/12/20 11:34:54;;;;;;;10.55;2.50;;;;;;;5.84;42.62;98677.39;1753298;82;21023;-82
2021/12/20 11:37:26;;;;;;;4.53;1.80;;;;;;;5.98;42.33;98678.09;1753363;82;21081;-82
2021/12/20 11:39:55;;;;;;;6.37;1.95;;;;;;;6.02;38.88;98676.33;1744490;82;21120;-83
2021/12/20 11:42:24;;;;;;;2.87;1.42;;;;;;;6.05;40.29;98672.44;1753167;82;21027;-83
2021/12/20 11:45:01;;;;;;;4.15;1.65;;;;;;;5.97;40.55;98678.98;1740698;82;21157;-83
2021/12/20 11:47:37;;;;;;;3.85;1.40;;;;;;;5.95;42.27;98686.34;1710896;83;21008;-81
2021/12/20 11:50:15;;;;;;;3.70;1.60;;;;;;;5.85;42.20;98682.11;1692910;83;21059;-81
2021/12/20 11:52:46;;;;;;;5.60;1.42;;;;;;;5.63;40.30;98682.40;1715396;82;21058;-81
2021/12/20 11:55:25;;;;;;;5.42;1.70;;;;;;;5.77;42.93;98688.23;1716864;84;21065;-82
2021/12/20 11:58:01;;;;;;;17.35;2.20;;;;;;;6.08;44.33;98685.28;1713573;82;20980;-82
2021/12/20 12:00:35;;;;;;;7.62;1.82;;;;;;;6.38;43.79;98690.44;1699252;83;21074;-82
2021/12/20 12:03:19;;;;;;;12.18;2.67;;;;;;;6.33;41.62;98691.41;1713494;82;21018;-83
2021/12/20 12:05:57;;;;;;;6.70;2.98;;;;;;;6.20;42.52;98695.03;1716568;83;21117;-81